createdAt,value
2022-08-08T00:01:12.859Z,98648.69
2022-08-08T00:04:05.557Z,98641.56
2022-08-08T00:06:47.526Z,98650.06
2022-08-08T00:09:33.107Z,98658.09
2022-08-08T00:12:09.735Z,98669.72
2022-08-08T00:15:00.114Z,98663.63
2022-08-08T00:18:01.687Z,98660.28
2022-08-08T00:20:44.631Z,98654.25
2022-08-08T00:23:25.303Z,98657.16
2022-08-08T00:25:58.139Z,98659.84
2022-08-08T00:28:35.515Z,98660.81
2022-08-08T00:32:14.863Z,98662.44
2022-08-08T00:34:46.368Z,98663.00
2022-08-08T00:37:46.926Z,98662.19
2022-08-08T00:41:12.382Z,98661.56
2022-08-08T00:43:56.308Z,98656.91
2022-08-08T00:46:57.389Z,98656.88
2022-08-08T00:49:27.337Z,98658.75
2022-08-08T00:52:19.996Z,98659.28
2022-08-08T00:55:09.226Z,98660.75
2022-08-08T00:57:58.827Z,98663.09
2022-08-08T01:00:35.866Z,98670.47
2022-08-08T01:04:01.012Z,98668.16
2022-08-08T01:06:37.516Z,98671.81
2022-08-08T01:09:35.873Z,98677.84
2022-08-08T01:12:54.590Z,98668.56
2022-08-08T01:15:54.281Z,98671.88
2022-08-08T01:19:02.716Z,98675.00
2022-08-08T01:22:12.578Z,98681.31
2022-08-08T01:24:57.243Z,98677.47
2022-08-08T01:27:44.062Z,98682.81
2022-08-08T01:30:37.092Z,98676.69
2022-08-08T01:33:53.813Z,98678.91
2022-08-08T01:36:36.539Z,98674.13
2022-08-08T01:39:24.182Z,98673.63
2022-08-08T01:42:20.023Z,98666.28
2022-08-08T01:45:03.052Z,98671.28
2022-08-08T01:48:14.620Z,98677.50
2022-08-08T01:51:48.636Z,98682.00
2022-08-08T01:55:26.040Z,98683.97
2022-08-08T01:57:19.568Z,98686.47
2022-08-08T02:00:03.568Z,98685.16
2022-08-08T02:03:50.495Z,98693.47
2022-08-08T02:06:31.578Z,98686.00
2022-08-08T02:09:18.262Z,98685.03
2022-08-08T02:11:59.523Z,98682.38
2022-08-08T02:14:49.823Z,98677.03
2022-08-08T02:17:36.633Z,98668.59
2022-08-08T02:21:01.104Z,98673.41
2022-08-08T02:23:35.131Z,98664.84
2022-08-08T02:26:03.409Z,98661.44
2022-08-08T02:29:21.088Z,98660.78
2022-08-08T02:31:58.575Z,98663.63
2022-08-08T02:34:36.841Z,98661.44
2022-08-08T02:37:52.875Z,98668.75
2022-08-08T02:40:12.293Z,98667.41
2022-08-08T02:44:37.277Z,98667.56
2022-08-08T02:46:08.121Z,98669.06
2022-08-08T02:49:06.010Z,98673.69
2022-08-08T02:52:50.173Z,98678.69
2022-08-08T02:55:19.744Z,98675.75
2022-08-08T02:58:15.102Z,98680.16
2022-08-08T03:00:58.290Z,98678.03
2022-08-08T03:05:03.898Z,98681.19
2022-08-08T03:06:40.697Z,98683.66
2022-08-08T03:09:42.658Z,98683.66
2022-08-08T03:12:36.488Z,98695.97
2022-08-08T03:16:00.906Z,98692.63
2022-08-08T03:18:08.334Z,98696.78
2022-08-08T03:20:52.468Z,98698.91
2022-08-08T03:23:23.839Z,98698.75
2022-08-08T03:25:58.005Z,98707.41
2022-08-08T03:28:44.554Z,98699.44
2022-08-08T03:32:05.348Z,98704.75
2022-08-08T03:34:18.639Z,98697.59
2022-08-08T03:36:46.514Z,98699.22
2022-08-08T03:39:15.996Z,98698.53
2022-08-08T03:42:27.794Z,98698.19
2022-08-08T03:44:38.603Z,98704.53
2022-08-08T03:47:19.537Z,98707.72
2022-08-08T03:50:00.947Z,98706.84
2022-08-08T03:52:35.351Z,98709.84
2022-08-08T03:55:56.288Z,98716.16
2022-08-08T03:58:31.567Z,98715.97
2022-08-08T04:01:20.785Z,98717.47
2022-08-08T04:03:58.897Z,98714.13
2022-08-08T04:06:29.866Z,98723.09
2022-08-08T04:09:10.214Z,98722.59
2022-08-08T04:11:48.652Z,98724.56
2022-08-08T04:14:34.945Z,98720.41
2022-08-08T04:17:04.400Z,98732.00
2022-08-08T04:19:36.687Z,98725.72
2022-08-08T04:22:04.494Z,98733.56
2022-08-08T04:24:36.235Z,98733.03
2022-08-08T04:27:07.391Z,98745.03
2022-08-08T04:29:37.693Z,98747.50
2022-08-08T04:32:10.676Z,98748.00
2022-08-08T04:34:55.269Z,98742.16
2022-08-08T04:37:31.659Z,98748.34
2022-08-08T04:40:05.712Z,98751.16
2022-08-08T04:42:55.923Z,98748.53
2022-08-08T04:45:25.843Z,98760.31
2022-08-08T04:47:58.615Z,98759.16
2022-08-08T04:50:34.280Z,98764.34
2022-08-08T04:53:52.173Z,98772.81
2022-08-08T04:55:56.035Z,98776.41
2022-08-08T04:58:26.333Z,98773.41
2022-08-08T05:00:53.349Z,98777.09
2022-08-08T05:04:11.316Z,98778.06
2022-08-08T05:06:12.714Z,98781.56
2022-08-08T05:08:42.719Z,98785.88
2022-08-08T05:11:18.781Z,98782.75
2022-08-08T05:13:58.109Z,98781.38
2022-08-08T05:16:51.870Z,98781.38
2022-08-08T05:20:11.635Z,98789.38
2022-08-08T05:22:10.386Z,98788.53
2022-08-08T05:24:41.204Z,98789.88
2022-08-08T05:27:08.300Z,98794.03
2022-08-08T05:29:37.699Z,98801.50
2022-08-08T05:32:09.546Z,98792.53
2022-08-08T05:34:50.282Z,98802.50
2022-08-08T05:37:39.117Z,98801.34
2022-08-08T05:40:14.677Z,98798.00
2022-08-08T05:42:51.740Z,98799.16
2022-08-08T05:45:25.149Z,98798.28
2022-08-08T05:48:08.885Z,98808.59
2022-08-08T05:50:36.783Z,98801.75
2022-08-08T05:53:53.794Z,98794.91
2022-08-08T05:56:09.545Z,98793.16
2022-08-08T05:58:56.727Z,98806.19
2022-08-08T06:01:55.424Z,98803.00
2022-08-08T06:04:23.774Z,98793.59
2022-08-08T06:06:56.643Z,98802.88
2022-08-08T06:09:59.012Z,98808.50
2022-08-08T06:12:30.052Z,98806.88
2022-08-08T06:14:59.923Z,98810.63
2022-08-08T06:17:32.168Z,98809.75
2022-08-08T06:20:16.336Z,98812.41
2022-08-08T06:22:46.298Z,98817.41
2022-08-08T06:25:18.438Z,98816.41
2022-08-08T06:28:13.121Z,98819.03
2022-08-08T06:30:44.564Z,98824.00
2022-08-08T06:33:13.326Z,98821.72
2022-08-08T06:36:06.335Z,98828.06
2022-08-08T06:38:40.993Z,98823.97
2022-08-08T06:41:13.146Z,98824.06
2022-08-08T06:43:41.552Z,98836.44
2022-08-08T06:46:29.972Z,98833.13
2022-08-08T06:48:57.597Z,98839.81
2022-08-08T06:51:31.210Z,98829.63
2022-08-08T06:54:22.749Z,98833.13
2022-08-08T06:56:51.597Z,98835.16
2022-08-08T06:59:20.099Z,98840.06
2022-08-08T07:02:26.422Z,98835.00
2022-08-08T07:04:58.607Z,98839.41
2022-08-08T07:07:44.001Z,98831.94
2022-08-08T07:10:13.020Z,98845.34
2022-08-08T07:12:48.342Z,98844.13
2022-08-08T07:16:06.128Z,98838.75
2022-08-08T07:18:57.759Z,98839.19
2022-08-08T07:21:31.022Z,98840.41
2022-08-08T07:24:03.842Z,98842.34
2022-08-08T07:26:54.300Z,98840.34
2022-08-08T07:30:01.642Z,98833.81
2022-08-08T07:32:15.714Z,98830.25
2022-08-08T07:34:59.444Z,98830.34
2022-08-08T07:37:49.588Z,98833.19
2022-08-08T07:40:30.138Z,98831.97
2022-08-08T07:43:04.224Z,98837.78
2022-08-08T07:46:05.291Z,98836.81
2022-08-08T07:48:29.701Z,98836.44
2022-08-08T07:51:00.750Z,98844.28
2022-08-08T07:54:01.487Z,98841.31
2022-08-08T07:56:37.378Z,98845.44
2022-08-08T07:59:14.222Z,98842.81
2022-08-08T08:02:34.910Z,98848.19
2022-08-08T08:04:49.370Z,98845.25
2022-08-08T08:07:31.706Z,98853.56
2022-08-08T08:10:03.021Z,98855.00
2022-08-08T08:12:41.324Z,98852.78
2022-08-08T08:15:15.142Z,98856.06
2022-08-08T08:17:48.195Z,98854.75
2022-08-08T08:20:18.439Z,98856.28
2022-08-08T08:22:47.293Z,98858.31
2022-08-08T08:25:16.882Z,98849.41
2022-08-08T08:28:00.400Z,98854.19
2022-08-08T08:30:29.981Z,98851.06
2022-08-08T08:32:56.815Z,98855.25
2022-08-08T08:38:18.191Z,98849.91
2022-08-08T08:40:51.658Z,98858.47
2022-08-08T08:43:26.899Z,98854.47
2022-08-08T08:46:01.166Z,98853.63
2022-08-08T08:48:35.097Z,98851.91
2022-08-08T08:51:06.350Z,98842.28
2022-08-08T08:53:56.649Z,98849.59
2022-08-08T08:56:29.417Z,98839.78
2022-08-08T08:59:09.092Z,98842.22
2022-08-08T09:01:50.694Z,98839.91
2022-08-08T09:04:30.928Z,98841.63
2022-08-08T09:07:08.788Z,98848.91
2022-08-08T09:09:47.679Z,98842.69
2022-08-08T09:12:23.840Z,98842.13
2022-08-08T09:14:53.974Z,98838.47
2022-08-08T09:17:40.947Z,98831.59
2022-08-08T09:22:01.322Z,98836.38
2022-08-08T09:22:58.974Z,98831.31
2022-08-08T09:25:36.350Z,98837.59
2022-08-08T09:28:23.925Z,98830.88
2022-08-08T09:31:12.361Z,98831.06
2022-08-08T09:34:30.041Z,98832.53
2022-08-08T09:36:30.047Z,98830.88
2022-08-08T09:39:00.149Z,98830.56
2022-08-08T09:41:55.087Z,98824.41
2022-08-08T09:44:48.041Z,98826.59
2022-08-08T09:48:02.282Z,98827.13
2022-08-08T09:50:13.954Z,98822.06
2022-08-08T09:52:56.402Z,98824.50
2022-08-08T09:56:03.199Z,98819.63
2022-08-08T09:58:26.330Z,98822.66
2022-08-08T10:01:02.132Z,98824.66
2022-08-08T10:03:42.197Z,98820.66
2022-08-08T10:06:15.050Z,98814.13
2022-08-08T10:08:49.966Z,98805.56
2022-08-08T10:12:26.037Z,98806.50
2022-08-08T10:14:10.764Z,98811.09
2022-08-08T10:16:55.912Z,98801.28
2022-08-08T10:19:57.193Z,98813.31
2022-08-08T10:22:22.798Z,98808.44
2022-08-08T10:24:55.374Z,98797.78
2022-08-08T10:27:28.650Z,98796.09
2022-08-08T10:30:03.943Z,98801.03
2022-08-08T10:32:39.031Z,98795.59
2022-08-08T10:36:07.624Z,98793.81
2022-08-08T10:38:05.714Z,98797.50
2022-08-08T10:40:38.081Z,98790.09
2022-08-08T10:43:06.058Z,98790.03
2022-08-08T10:45:56.108Z,98784.19
2022-08-08T10:48:56.147Z,98784.75
2022-08-08T10:51:40.712Z,98786.63
2022-08-08T10:54:08.185Z,98784.63
2022-08-08T10:56:43.232Z,98790.50
2022-08-08T10:59:14.550Z,98779.19
2022-08-08T11:01:46.135Z,98779.66
2022-08-08T11:04:16.315Z,98779.59
2022-08-08T11:06:47.419Z,98778.09
2022-08-08T11:09:19.801Z,98782.22
2022-08-08T11:12:06.382Z,98773.78
2022-08-08T11:14:35.340Z,98777.19
2022-08-08T11:17:03.958Z,98772.13
2022-08-08T11:19:33.783Z,98774.56
2022-08-08T11:22:01.180Z,98771.50
2022-08-08T11:24:33.478Z,98767.66
2022-08-08T11:27:19.987Z,98764.91
2022-08-08T11:30:20.521Z,98758.81
2022-08-08T11:32:40.305Z,98762.75
2022-08-08T11:35:27.630Z,98761.38
2022-08-08T11:38:38.661Z,98761.50
2022-08-08T11:40:51.739Z,98753.66
2022-08-08T11:43:21.777Z,98764.16
2022-08-08T11:46:09.510Z,98761.13
2022-08-08T11:48:41.127Z,98749.94
2022-08-08T11:51:30.518Z,98754.31
2022-08-08T11:54:01.166Z,98749.47
2022-08-08T11:56:34.590Z,98747.59
2022-08-08T11:59:11.942Z,98753.03
2022-08-08T12:01:38.790Z,98751.09
2022-08-08T12:04:06.841Z,98752.72
2022-08-08T12:06:33.875Z,98755.81
2022-08-08T12:09:17.260Z,98747.34
2022-08-08T12:11:46.087Z,98746.72
2022-08-08T12:14:23.968Z,98727.44
2022-08-08T12:16:57.028Z,98721.41
2022-08-08T12:19:31.148Z,98729.94
2022-08-08T12:22:09.460Z,98725.31
2022-08-08T12:24:51.462Z,98730.13
2022-08-08T12:27:27.055Z,98732.22
2022-08-08T12:30:02.620Z,98731.66
2022-08-08T12:32:44.864Z,98719.91
2022-08-08T12:35:22.764Z,98731.25
2022-08-08T12:38:07.243Z,98722.34
2022-08-08T12:40:54.142Z,98722.28
2022-08-08T12:43:47.922Z,98715.78
2022-08-08T12:46:25.997Z,98722.19
2022-08-08T12:51:59.204Z,98708.59
2022-08-08T12:54:29.596Z,98718.88
2022-08-08T12:56:56.942Z,98718.38
2022-08-08T12:59:45.267Z,98718.06
2022-08-08T13:02:28.409Z,98715.59
2022-08-08T13:04:58.038Z,98710.47
2022-08-08T13:08:04.233Z,98712.59
2022-08-08T13:10:33.579Z,98720.84
2022-08-08T13:13:05.813Z,98713.19
2022-08-08T13:15:35.802Z,98711.81
2022-08-08T13:18:11.081Z,98711.25
2022-08-08T13:20:45.406Z,98710.56
2022-08-08T13:23:36.939Z,98707.59
2022-08-08T13:26:14.664Z,98699.84
2022-08-08T13:28:45.416Z,98704.59
2022-08-08T13:31:16.276Z,98704.19
2022-08-08T13:33:46.160Z,98701.00
2022-08-08T13:36:14.188Z,98710.34
2022-08-08T13:38:41.118Z,98701.13
2022-08-08T13:41:15.901Z,98696.03
2022-08-08T13:43:44.967Z,98692.91
2022-08-08T13:46:27.334Z,98679.47
2022-08-08T13:49:12.182Z,98689.00
2022-08-08T13:51:56.089Z,98689.25
2022-08-08T13:54:29.256Z,98685.00
2022-08-08T13:57:12.840Z,98678.56
2022-08-08T13:59:47.900Z,98689.53
2022-08-08T14:02:20.481Z,98684.06
2022-08-08T14:05:09.015Z,98680.06
2022-08-08T14:07:49.954Z,98672.19
2022-08-08T14:10:33.712Z,98678.75
2022-08-08T14:13:31.296Z,98672.38
2022-08-08T14:16:07.824Z,98659.47
2022-08-08T14:18:53.809Z,98666.66
2022-08-08T14:21:22.309Z,98664.53
2022-08-08T14:24:04.421Z,98674.66
2022-08-08T14:26:46.376Z,98673.22
2022-08-08T14:29:26.973Z,98658.22
2022-08-08T14:32:10.643Z,98658.84
2022-08-08T14:34:42.718Z,98661.22
2022-08-08T14:37:10.133Z,98657.44
2022-08-08T14:40:06.669Z,98658.78
2022-08-08T14:42:36.562Z,98667.75
2022-08-08T14:45:33.711Z,98663.72
2022-08-08T14:48:11.824Z,98652.06
2022-08-08T14:50:42.966Z,98650.94
2022-08-08T14:53:14.314Z,98652.66
2022-08-08T14:55:43.005Z,98646.84
2022-08-08T14:58:12.099Z,98643.91
2022-08-08T15:00:45.016Z,98652.06
2022-08-08T15:03:15.846Z,98649.50
2022-08-08T15:05:54.246Z,98644.75
2022-08-08T15:08:35.366Z,98654.97
2022-08-08T15:11:11.035Z,98645.19
2022-08-08T15:14:01.689Z,98649.78
2022-08-08T15:16:28.145Z,98653.22
2022-08-08T15:18:55.277Z,98641.97
2022-08-08T15:21:22.113Z,98639.56
2022-08-08T15:23:51.407Z,98646.00
2022-08-08T15:26:20.190Z,98641.59
2022-08-08T15:28:53.070Z,98643.31
2022-08-08T15:31:56.367Z,98641.97
2022-08-08T15:34:08.542Z,98636.41
2022-08-08T15:36:47.485Z,98642.22
2022-08-08T15:39:14.768Z,98637.72
2022-08-08T15:41:44.116Z,98646.34
2022-08-08T15:44:13.846Z,98644.66
2022-08-08T15:46:45.406Z,98650.44
2022-08-08T15:49:17.203Z,98637.75
2022-08-08T15:51:43.829Z,98651.97
2022-08-08T15:54:37.242Z,98644.03
2022-08-08T15:56:57.105Z,98637.91
2022-08-08T16:00:25.446Z,98641.13
2022-08-08T16:02:13.421Z,98639.00
2022-08-08T16:04:42.506Z,98636.25
2022-08-08T16:07:09.249Z,98639.66
2022-08-08T16:13:03.738Z,98638.13
2022-08-08T16:13:28.301Z,98639.47
2022-08-08T16:15:12.646Z,98637.56
2022-08-08T16:18:06.786Z,98629.63
2022-08-08T16:20:30.136Z,98633.03
2022-08-08T16:22:56.832Z,98632.50
2022-08-08T16:25:24.403Z,98636.16
2022-08-08T16:28:34.113Z,98634.34
2022-08-08T16:30:57.665Z,98638.53
2022-08-08T16:33:29.651Z,98642.78
2022-08-08T16:36:08.732Z,98641.50
2022-08-08T16:38:44.491Z,98640.41
2022-08-08T16:41:20.698Z,98644.59
2022-08-08T16:43:51.739Z,98642.56
2022-08-08T16:46:43.171Z,98642.38
2022-08-08T16:49:08.070Z,98637.47
2022-08-08T16:55:00.528Z,98637.69
2022-08-08T16:55:00.965Z,98645.25
2022-08-08T16:57:43.555Z,98636.94
2022-08-08T17:00:06.200Z,98642.19
2022-08-08T17:02:39.552Z,98643.66
2022-08-08T17:05:08.044Z,98644.19
2022-08-08T17:07:37.406Z,98650.13
2022-08-08T17:10:08.037Z,98646.03
2022-08-08T17:12:36.906Z,98648.91
2022-08-08T17:15:20.559Z,98653.28
2022-08-08T17:18:02.829Z,98652.38
2022-08-08T17:20:39.557Z,98650.72
2022-08-08T17:23:16.372Z,98652.41
2022-08-08T17:25:53.438Z,98648.50
2022-08-08T17:28:34.116Z,98659.50
2022-08-08T17:31:01.831Z,98659.97
2022-08-08T17:34:48.797Z,98658.31
2022-08-08T17:36:28.670Z,98657.34
2022-08-08T17:39:05.034Z,98658.31
2022-08-08T17:41:48.537Z,98667.53
2022-08-08T17:44:26.898Z,98667.84
2022-08-08T17:46:55.479Z,98674.00
2022-08-08T17:49:37.955Z,98674.84
2022-08-08T17:52:09.659Z,98671.19
2022-08-08T17:54:36.394Z,98678.16
2022-08-08T17:57:03.517Z,98678.66
2022-08-08T17:59:36.187Z,98681.72
2022-08-08T18:02:18.870Z,98686.25
2022-08-08T18:04:50.823Z,98678.19
2022-08-08T18:08:15.622Z,98681.38
2022-08-08T18:10:07.307Z,98682.94
2022-08-08T18:12:34.442Z,98691.88
2022-08-08T18:15:01.766Z,98688.91
2022-08-08T18:18:27.502Z,98684.72
2022-08-08T18:20:43.164Z,98688.50
2022-08-08T18:23:03.302Z,98683.44
2022-08-08T18:25:37.217Z,98690.13
2022-08-08T18:28:05.505Z,98691.19
2022-08-08T18:30:33.864Z,98691.34
2022-08-08T18:33:02.543Z,98694.03
2022-08-08T18:35:41.566Z,98693.13
2022-08-08T18:38:17.347Z,98702.44
2022-08-08T18:40:46.796Z,98707.44
2022-08-08T18:43:16.533Z,98708.38
2022-08-08T18:45:45.074Z,98712.91
2022-08-08T18:48:31.056Z,98711.69
2022-08-08T18:50:58.944Z,98721.03
2022-08-08T18:54:02.954Z,98719.09
2022-08-08T18:56:24.348Z,98730.88
2022-08-08T18:58:53.734Z,98731.50
2022-08-08T19:02:26.847Z,98735.34
2022-08-08T19:04:10.686Z,98747.81
2022-08-08T19:06:39.363Z,98743.72
2022-08-08T19:09:13.367Z,98754.13
2022-08-08T19:11:46.843Z,98751.22
2022-08-08T19:14:20.652Z,98751.22
2022-08-08T19:16:48.306Z,98760.50
2022-08-08T19:19:15.959Z,98755.22
2022-08-08T19:21:49.123Z,98757.09
2022-08-08T19:24:38.678Z,98766.81
2022-08-08T19:27:03.941Z,98765.91
2022-08-08T19:29:31.091Z,98764.63
2022-08-08T19:32:00.738Z,98765.69
2022-08-08T19:34:36.186Z,98775.25
2022-08-08T19:37:16.527Z,98777.00
2022-08-08T19:39:45.498Z,98781.28
2022-08-08T19:42:13.801Z,98785.03
2022-08-08T19:44:46.366Z,98794.81
2022-08-08T19:47:24.579Z,98785.88
2022-08-08T19:49:59.592Z,98787.81
2022-08-08T19:52:34.854Z,98789.06
2022-08-08T19:55:11.518Z,98794.22
2022-08-08T19:57:43.771Z,98805.19
2022-08-08T20:00:30.692Z,98802.09
2022-08-08T20:03:14.617Z,98804.00
2022-08-08T20:06:15.655Z,98802.53
2022-08-08T20:08:32.407Z,98811.81
2022-08-08T20:11:03.812Z,98804.78
2022-08-08T20:14:32.804Z,98804.59
2022-08-08T20:16:20.356Z,98804.19
2022-08-08T20:18:53.172Z,98809.78
2022-08-08T20:21:25.821Z,98807.28
2022-08-08T20:23:57.690Z,98811.00
2022-08-08T20:26:27.376Z,98808.94
2022-08-08T20:28:54.662Z,98809.16
2022-08-08T20:31:22.744Z,98814.53
2022-08-08T20:34:03.770Z,98819.06
2022-08-08T20:36:38.583Z,98813.09
2022-08-08T20:39:09.432Z,98810.81
2022-08-08T20:41:36.730Z,98813.50
2022-08-08T20:44:08.192Z,98806.88
2022-08-08T20:46:35.802Z,98806.25
2022-08-08T20:49:04.787Z,98802.75
2022-08-08T20:51:33.015Z,98810.16
2022-08-08T20:54:09.275Z,98811.34
2022-08-08T20:57:04.401Z,98818.19
2022-08-08T20:59:28.441Z,98812.16
2022-08-08T21:02:07.161Z,98808.28
2022-08-08T21:04:36.702Z,98813.81
2022-08-08T21:07:08.286Z,98812.59
2022-08-08T21:09:48.479Z,98814.00
2022-08-08T21:12:33.368Z,98816.69
2022-08-08T21:15:06.634Z,98819.75
2022-08-08T21:17:35.708Z,98830.22
2022-08-08T21:20:04.568Z,98825.59
2022-08-08T21:22:31.661Z,98823.25
2022-08-08T21:24:59.202Z,98826.84
2022-08-08T21:28:05.263Z,98832.75
2022-08-08T21:30:21.619Z,98825.69
2022-08-08T21:32:53.322Z,98824.63
2022-08-08T21:36:16.627Z,98825.41
2022-08-08T21:38:16.580Z,98819.44
2022-08-08T21:40:56.431Z,98816.94
2022-08-08T21:43:32.995Z,98821.03
2022-08-08T21:48:21.655Z,98820.34
2022-08-08T21:48:55.535Z,98825.47
2022-08-08T21:54:17.781Z,98829.53
2022-08-08T21:54:37.220Z,98820.03
2022-08-08T21:57:07.345Z,98821.66
2022-08-08T22:00:01.850Z,98829.13
2022-08-08T22:02:24.986Z,98828.88
2022-08-08T22:04:56.073Z,98833.00
2022-08-08T22:07:34.829Z,98834.00
2022-08-08T22:10:09.860Z,98831.47
2022-08-08T22:12:46.980Z,98830.56
2022-08-08T22:15:14.137Z,98836.31
2022-08-08T22:17:45.521Z,98837.78
2022-08-08T22:20:18.769Z,98838.34
2022-08-08T22:22:52.684Z,98827.03
2022-08-08T22:25:25.160Z,98826.38
2022-08-08T22:28:02.611Z,98833.34
2022-08-08T22:30:31.631Z,98825.00
2022-08-08T22:32:58.892Z,98835.44
2022-08-08T22:36:04.560Z,98833.34
2022-08-08T22:38:14.865Z,98828.50
2022-08-08T22:40:45.151Z,98833.81
2022-08-08T22:43:18.417Z,98825.00
2022-08-08T22:45:46.593Z,98830.38
2022-08-08T22:48:22.436Z,98828.00
2022-08-08T22:50:49.734Z,98839.00
2022-08-08T22:54:34.251Z,98840.47
2022-08-08T22:56:04.916Z,98838.00
2022-08-08T22:58:34.342Z,98834.66
2022-08-08T23:01:30.182Z,98831.56
2022-08-08T23:03:56.447Z,98827.22
2022-08-08T23:06:24.815Z,98829.06
2022-08-08T23:08:58.046Z,98832.56
2022-08-08T23:11:31.420Z,98828.41
2022-08-08T23:14:18.172Z,98833.50
2022-08-08T23:16:57.461Z,98835.72
2022-08-08T23:19:27.959Z,98833.72
2022-08-08T23:22:00.655Z,98841.06
2022-08-08T23:24:27.475Z,98838.59
2022-08-08T23:27:03.310Z,98827.00
2022-08-08T23:29:31.268Z,98841.47
2022-08-08T23:31:58.399Z,98837.72
2022-08-08T23:34:25.214Z,98830.78
2022-08-08T23:36:58.146Z,98832.78
2022-08-08T23:39:32.360Z,98836.25
2022-08-08T23:42:09.164Z,98835.19
2022-08-08T23:44:39.438Z,98846.09
2022-08-08T23:49:03.735Z,98846.88
2022-08-08T23:50:01.055Z,98837.28
2022-08-08T23:52:31.055Z,98835.53
2022-08-08T23:55:07.645Z,98831.47
2022-08-08T23:57:52.514Z,98829.03
